createdAt,value
2023-01-09T00:01:16.352Z,258.90
2023-01-09T00:03:44.333Z,255.63
2023-01-09T00:06:13.353Z,266.43
2023-01-09T00:08:41.283Z,238.13
2023-01-09T00:11:09.422Z,248.53
2023-01-09T00:13:37.861Z,243.87
2023-01-09T00:16:06.198Z,245.90
2023-01-09T00:18:34.344Z,240.40
2023-01-09T00:21:02.654Z,251.70
2023-01-09T00:23:31.804Z,255.80
2023-01-09T00:26:04.295Z,253.80
2023-01-09T00:28:32.262Z,277.87
2023-01-09T00:31:01.565Z,275.13
2023-01-09T00:33:30.965Z,268.80
2023-01-09T00:35:58.679Z,273.73
2023-01-09T00:38:26.538Z,262.30
2023-01-09T00:40:56.554Z,260.40
2023-01-09T00:43:29.326Z,253.03
2023-01-09T00:45:57.076Z,265.33
2023-01-09T00:48:26.992Z,272.00
2023-01-09T00:50:56.949Z,259.27
2023-01-09T00:53:28.629Z,251.30
2023-01-09T00:56:00.567Z,268.60
2023-01-09T00:58:28.388Z,248.27
2023-01-09T01:00:56.436Z,273.73
2023-01-09T01:03:24.114Z,264.30
2023-01-09T01:06:09.457Z,254.23
2023-01-09T01:08:37.471Z,256.50
2023-01-09T01:11:09.174Z,258.70
2023-01-09T01:13:37.074Z,269.37
2023-01-09T01:16:05.503Z,257.33
2023-01-09T01:18:33.487Z,274.37
2023-01-09T01:21:01.452Z,283.47
2023-01-09T01:23:29.223Z,261.97
2023-01-09T01:25:56.901Z,273.03
2023-01-09T01:28:25.901Z,270.30
2023-01-09T01:30:53.585Z,267.77
2023-01-09T01:33:21.297Z,260.63
2023-01-09T01:35:48.909Z,276.43
2023-01-09T01:38:16.600Z,269.23
2023-01-09T01:40:44.260Z,268.60
2023-01-09T01:43:13.393Z,240.10
2023-01-09T01:45:42.858Z,259.90
2023-01-09T01:48:13.785Z,259.10
2023-01-09T01:50:45.715Z,250.63
2023-01-09T01:53:17.260Z,237.63
2023-01-09T01:55:54.804Z,258.27
2023-01-09T01:58:22.616Z,242.20
2023-01-09T02:00:51.618Z,263.93
2023-01-09T02:03:23.204Z,262.77
2023-01-09T02:05:50.960Z,249.07
2023-01-09T02:08:19.183Z,251.77
2023-01-09T02:10:47.389Z,265.87
2023-01-09T02:13:15.758Z,241.93
2023-01-09T02:15:59.121Z,250.43
2023-01-09T02:18:42.214Z,242.67
2023-01-09T02:21:19.157Z,248.07
2023-01-09T02:24:08.545Z,238.30
2023-01-09T02:27:08.815Z,243.40
2023-01-09T02:30:09.352Z,231.60
2023-01-09T02:32:57.556Z,239.53
2023-01-09T02:35:35.912Z,229.83
2023-01-09T02:38:18.305Z,243.53
2023-01-09T02:40:54.464Z,261.37
2023-01-09T02:43:22.568Z,255.83
2023-01-09T02:45:50.295Z,260.63
2023-01-09T02:48:19.462Z,268.77
2023-01-09T02:51:00.341Z,252.87
2023-01-09T02:53:49.762Z,250.17
2023-01-09T02:56:54.755Z,239.17
2023-01-09T02:59:28.228Z,235.83
2023-01-09T03:02:14.324Z,238.47
2023-01-09T03:04:54.387Z,259.10
2023-01-09T03:07:25.994Z,243.80
2023-01-09T03:09:59.743Z,245.77
2023-01-09T03:12:32.540Z,257.80
2023-01-09T03:15:02.738Z,267.80
2023-01-09T03:17:37.250Z,275.77
2023-01-09T03:20:10.189Z,264.00
2023-01-09T03:22:40.202Z,247.40
2023-01-09T03:25:08.405Z,277.07
2023-01-09T03:27:36.210Z,260.30
2023-01-09T03:30:04.031Z,271.07
2023-01-09T03:32:31.668Z,274.87
2023-01-09T03:35:01.445Z,277.73
2023-01-09T03:37:30.716Z,247.13
2023-01-09T03:39:58.369Z,278.93
2023-01-09T03:42:25.975Z,261.90
2023-01-09T03:44:53.646Z,281.87
2023-01-09T03:47:21.241Z,284.97
2023-01-09T03:49:48.931Z,274.57
2023-01-09T03:52:16.596Z,262.93
2023-01-09T03:54:45.539Z,251.97
2023-01-09T03:57:13.184Z,264.80
2023-01-09T03:59:40.983Z,279.40
2023-01-09T04:02:08.835Z,271.23
2023-01-09T04:04:36.616Z,269.27
2023-01-09T04:07:04.263Z,278.03
2023-01-09T04:09:32.045Z,280.27
2023-01-09T04:12:01.209Z,274.27
2023-01-09T04:14:28.900Z,294.60
2023-01-09T04:16:56.605Z,272.77
2023-01-09T04:19:24.209Z,265.40
2023-01-09T04:21:51.873Z,277.37
2023-01-09T04:24:19.727Z,270.63
2023-01-09T04:26:47.343Z,265.63
2023-01-09T04:29:16.353Z,268.77
2023-01-09T04:31:44.118Z,267.93
2023-01-09T04:34:11.816Z,286.97
2023-01-09T04:36:40.078Z,278.53
2023-01-09T04:39:07.693Z,268.73
2023-01-09T04:41:50.711Z,266.63
2023-01-09T04:44:22.306Z,278.57
2023-01-09T04:46:50.017Z,258.37
2023-01-09T04:49:17.693Z,258.83
2023-01-09T04:51:45.385Z,252.93
2023-01-09T04:54:13.171Z,256.73
2023-01-09T04:56:40.902Z,263.73
2023-01-09T04:59:09.247Z,255.03
2023-01-09T05:01:38.426Z,241.90
2023-01-09T05:04:06.827Z,261.10
2023-01-09T05:06:35.207Z,229.47
2023-01-09T05:09:02.948Z,236.23
2023-01-09T05:11:30.669Z,251.73
2023-01-09T05:13:58.614Z,248.37
2023-01-09T05:16:26.307Z,242.17
2023-01-09T05:18:57.115Z,229.70
2023-01-09T05:21:25.104Z,239.30
2023-01-09T05:23:53.089Z,222.97
2023-01-09T05:26:23.823Z,199.17
2023-01-09T05:28:51.900Z,221.73
2023-01-09T05:31:19.988Z,219.40
2023-01-09T05:33:48.036Z,227.87
2023-01-09T05:36:17.075Z,223.60
2023-01-09T05:38:44.729Z,212.63
2023-01-09T05:41:12.673Z,217.70
2023-01-09T05:43:40.628Z,217.30
2023-01-09T05:46:08.318Z,219.97
2023-01-09T05:48:37.792Z,195.90
2023-01-09T05:51:05.620Z,213.33
2023-01-09T05:53:34.661Z,225.53
2023-01-09T05:56:02.424Z,223.10
2023-01-09T05:58:30.352Z,205.27
2023-01-09T06:00:59.639Z,198.43
2023-01-09T06:03:27.372Z,199.10
2023-01-09T06:05:55.077Z,203.50
2023-01-09T06:08:22.792Z,198.87
2023-01-09T06:10:51.831Z,190.50
2023-01-09T06:13:19.501Z,206.27
2023-01-09T06:15:48.756Z,203.63
2023-01-09T06:18:16.887Z,198.23
2023-01-09T06:20:45.341Z,187.07
2023-01-09T06:23:13.755Z,204.50
2023-01-09T06:25:42.077Z,184.83
2023-01-09T06:28:11.527Z,187.47
2023-01-09T06:30:39.280Z,212.67
2023-01-09T06:33:06.914Z,202.47
2023-01-09T06:35:34.558Z,178.03
2023-01-09T06:38:03.383Z,177.37
2023-01-09T06:40:31.107Z,191.23
2023-01-09T06:42:58.756Z,179.87
2023-01-09T06:45:27.778Z,174.27
2023-01-09T06:47:55.534Z,182.50
2023-01-09T06:50:23.175Z,176.67
2023-01-09T06:52:50.862Z,174.70
2023-01-09T06:55:18.879Z,195.47
2023-01-09T06:57:46.603Z,176.03
2023-01-09T07:00:14.944Z,181.10
2023-01-09T07:02:44.065Z,176.50
2023-01-09T07:05:12.467Z,180.23
2023-01-09T07:07:41.133Z,174.60
2023-01-09T07:10:11.376Z,180.60
2023-01-09T07:12:39.032Z,181.30
2023-01-09T07:15:07.736Z,207.70
2023-01-09T07:17:35.485Z,180.30
2023-01-09T07:20:05.319Z,178.17
2023-01-09T07:22:33.021Z,187.03
2023-01-09T07:25:00.856Z,187.17
2023-01-09T07:27:28.713Z,187.43
2023-01-09T07:29:56.386Z,190.00
2023-01-09T07:32:24.001Z,191.70
2023-01-09T07:34:51.620Z,186.90
2023-01-09T07:37:20.570Z,190.70
2023-01-09T07:39:48.353Z,180.00
2023-01-09T07:42:16.721Z,179.67
2023-01-09T07:44:44.380Z,173.50
2023-01-09T07:47:12.059Z,181.00
2023-01-09T07:49:40.271Z,175.30
2023-01-09T07:52:07.943Z,185.37
2023-01-09T07:54:37.116Z,180.27
2023-01-09T07:57:05.053Z,182.07
2023-01-09T07:59:32.958Z,172.03
2023-01-09T08:02:02.191Z,199.63
2023-01-09T08:04:29.893Z,186.77
2023-01-09T08:06:57.818Z,178.03
2023-01-09T08:09:25.517Z,182.07
2023-01-09T08:11:56.890Z,162.30
2023-01-09T08:14:25.292Z,172.27
2023-01-09T08:16:52.983Z,163.10
2023-01-09T08:19:20.632Z,175.50
2023-01-09T08:21:48.314Z,182.93
2023-01-09T08:24:15.975Z,179.30
2023-01-09T08:26:43.691Z,182.57
2023-01-09T08:29:13.259Z,182.27
2023-01-09T08:31:40.985Z,168.23
2023-01-09T08:34:08.767Z,193.83
2023-01-09T08:36:36.512Z,174.37
2023-01-09T08:39:04.599Z,180.83
2023-01-09T08:41:50.113Z,200.83
2023-01-09T08:44:36.899Z,197.13
2023-01-09T08:47:07.459Z,185.13
2023-01-09T08:49:36.579Z,171.90
2023-01-09T08:52:05.356Z,190.57
2023-01-09T08:54:33.365Z,184.37
2023-01-09T08:57:01.017Z,168.80
2023-01-09T08:59:30.383Z,170.90
2023-01-09T09:01:58.303Z,171.30
2023-01-09T09:04:26.523Z,179.27
2023-01-09T09:06:54.321Z,195.97
2023-01-09T09:09:22.023Z,183.53
2023-01-09T09:11:49.726Z,195.50
2023-01-09T09:14:34.897Z,195.50
2023-01-09T09:17:04.264Z,175.93
2023-01-09T09:19:31.979Z,192.07
2023-01-09T09:21:59.610Z,192.13
2023-01-09T09:24:27.649Z,196.43
2023-01-09T09:26:55.378Z,197.57
2023-01-09T09:29:23.010Z,180.07
2023-01-09T09:31:50.702Z,183.10
2023-01-09T09:34:19.728Z,198.03
2023-01-09T09:36:47.648Z,193.40
2023-01-09T09:39:15.291Z,174.50
2023-01-09T09:42:19.438Z,191.83
2023-01-09T09:45:03.021Z,174.77
2023-01-09T09:47:43.351Z,188.97
2023-01-09T09:50:29.557Z,181.50
2023-01-09T09:53:03.317Z,195.87
2023-01-09T09:55:33.274Z,199.07
2023-01-09T09:58:03.626Z,184.23
2023-01-09T10:00:31.666Z,197.27
2023-01-09T10:03:04.551Z,197.33
2023-01-09T10:05:36.498Z,180.80
2023-01-09T10:08:15.793Z,190.23
2023-01-09T10:10:52.189Z,202.33
2023-01-09T10:13:38.926Z,190.73
2023-01-09T10:16:17.441Z,171.67
2023-01-09T10:19:00.982Z,181.80
2023-01-09T10:21:38.569Z,192.93
2023-01-09T10:24:27.952Z,168.83
2023-01-09T10:26:57.044Z,175.60
2023-01-09T10:29:57.033Z,179.03
2023-01-09T10:32:46.391Z,175.50
2023-01-09T10:35:39.289Z,173.90
2023-01-09T10:38:19.303Z,172.23
2023-01-09T10:40:52.299Z,169.53
2023-01-09T10:43:30.058Z,188.23
2023-01-09T10:46:03.379Z,173.33
2023-01-09T10:48:34.950Z,167.53
2023-01-09T10:51:06.643Z,181.47
2023-01-09T10:53:38.842Z,191.73
2023-01-09T10:56:14.330Z,166.80
2023-01-09T10:58:41.986Z,172.30
2023-01-09T11:01:10.619Z,171.43
2023-01-09T11:03:38.992Z,175.93
2023-01-09T11:06:20.816Z,179.13
2023-01-09T11:08:53.083Z,172.50
2023-01-09T11:11:33.965Z,182.40
2023-01-09T11:14:08.198Z,198.03
2023-01-09T11:16:36.301Z,173.87
2023-01-09T11:19:04.113Z,172.07
2023-01-09T11:21:35.894Z,174.13
2023-01-09T11:24:29.529Z,165.53
2023-01-09T11:27:23.312Z,168.10
2023-01-09T11:30:22.421Z,155.40
2023-01-09T11:32:50.421Z,159.33
2023-01-09T11:35:24.719Z,163.40
2023-01-09T11:38:03.655Z,175.93
2023-01-09T11:40:39.696Z,178.20
2023-01-09T11:43:16.535Z,170.57
2023-01-09T11:46:00.110Z,166.90
2023-01-09T11:48:39.111Z,184.97
2023-01-09T11:51:18.168Z,171.17
2023-01-09T11:54:13.321Z,180.90
2023-01-09T11:56:42.832Z,171.70
2023-01-09T11:59:13.606Z,168.93
2023-01-09T12:02:01.776Z,178.67
2023-01-09T12:04:34.414Z,167.87
2023-01-09T12:07:26.171Z,189.40
2023-01-09T12:10:04.308Z,167.90
2023-01-09T12:12:43.407Z,174.63
2023-01-09T12:15:25.899Z,164.10
2023-01-09T12:18:23.520Z,171.80
2023-01-09T12:21:02.402Z,154.53
2023-01-09T12:23:45.710Z,168.73
2023-01-09T12:26:18.779Z,157.80
2023-01-09T12:29:11.492Z,162.80
2023-01-09T12:32:00.719Z,153.20
2023-01-09T12:35:00.285Z,160.67
2023-01-09T12:37:46.700Z,166.17
2023-01-09T12:40:35.769Z,163.57
2023-01-09T12:43:13.429Z,171.27
2023-01-09T12:45:58.399Z,176.13
2023-01-09T12:48:59.337Z,173.67
2023-01-09T12:51:32.615Z,166.07
2023-01-09T12:54:05.536Z,164.03
2023-01-09T12:56:38.273Z,150.80
2023-01-09T12:59:21.663Z,167.73
2023-01-09T13:01:52.104Z,169.03
2023-01-09T13:04:25.157Z,169.90
2023-01-09T13:06:58.291Z,163.63
2023-01-09T13:09:28.331Z,181.37
2023-01-09T13:12:04.028Z,189.33
2023-01-09T13:14:46.942Z,190.43
2023-01-09T13:17:22.089Z,164.57
2023-01-09T13:19:49.728Z,181.77
2023-01-09T13:22:19.036Z,189.10
2023-01-09T13:25:07.514Z,182.90
2023-01-09T13:27:39.297Z,194.70
2023-01-09T13:30:18.925Z,184.83
2023-01-09T13:33:03.040Z,190.43
2023-01-09T13:35:30.765Z,184.30
2023-01-09T13:37:58.575Z,185.70
2023-01-09T13:40:30.180Z,194.27
2023-01-09T13:42:59.678Z,190.10
2023-01-09T13:45:30.187Z,187.73
2023-01-09T13:48:29.324Z,188.47
2023-01-09T13:51:30.794Z,193.93
2023-01-09T13:53:58.588Z,177.60
2023-01-09T13:56:26.361Z,186.97
2023-01-09T13:59:27.036Z,190.13
2023-01-09T14:01:54.795Z,183.10
2023-01-09T14:04:45.886Z,185.23
2023-01-09T14:07:22.346Z,180.27
2023-01-09T14:09:58.215Z,188.07
2023-01-09T14:12:27.331Z,193.03
2023-01-09T14:14:58.309Z,189.23
2023-01-09T14:17:32.072Z,188.67
2023-01-09T14:20:04.003Z,195.77
2023-01-09T14:22:42.557Z,176.03
2023-01-09T14:25:25.522Z,171.17
2023-01-09T14:28:18.319Z,187.53
2023-01-09T14:31:06.048Z,180.20
2023-01-09T14:33:33.887Z,201.10
2023-01-09T14:36:12.066Z,183.77
2023-01-09T14:38:43.404Z,185.47
2023-01-09T14:41:21.213Z,180.83
2023-01-09T14:44:01.354Z,187.07
2023-01-09T14:46:35.360Z,178.60
2023-01-09T14:49:08.255Z,184.57
2023-01-09T14:51:39.625Z,178.07
2023-01-09T14:54:23.066Z,193.17
2023-01-09T14:56:50.706Z,181.57
2023-01-09T14:59:18.627Z,182.13
2023-01-09T15:01:51.382Z,194.57
2023-01-09T15:04:31.556Z,176.10
2023-01-09T15:07:00.717Z,175.57
2023-01-09T15:09:30.197Z,179.60
2023-01-09T15:12:03.340Z,176.00
2023-01-09T15:14:34.085Z,174.23
2023-01-09T15:17:02.949Z,182.30
2023-01-09T15:19:31.848Z,167.13
2023-01-09T15:22:03.629Z,186.00
2023-01-09T15:24:34.228Z,177.73
2023-01-09T15:27:12.089Z,171.60
2023-01-09T15:29:39.789Z,165.70
2023-01-09T15:32:10.941Z,168.93
2023-01-09T15:34:38.659Z,163.93
2023-01-09T15:37:24.784Z,166.57
2023-01-09T15:39:52.840Z,165.47
2023-01-09T15:42:51.342Z,176.47
2023-01-09T15:45:24.580Z,161.53
2023-01-09T15:47:52.388Z,173.90
2023-01-09T15:50:27.037Z,178.33
2023-01-09T15:52:57.345Z,178.27
2023-01-09T15:55:28.952Z,178.03
2023-01-09T15:57:57.226Z,175.17
2023-01-09T16:00:39.306Z,186.30
2023-01-09T16:03:18.799Z,165.00
2023-01-09T16:05:49.310Z,176.53
2023-01-09T16:08:25.057Z,182.77
2023-01-09T16:10:54.450Z,180.40
2023-01-09T16:13:24.217Z,167.10
2023-01-09T16:15:52.865Z,181.03
2023-01-09T16:18:23.397Z,182.67
2023-01-09T16:21:02.780Z,174.13
2023-01-09T16:23:34.347Z,174.97
2023-01-09T16:26:07.473Z,172.67
2023-01-09T16:28:35.243Z,173.50
2023-01-09T16:31:08.063Z,181.43
2023-01-09T16:33:36.062Z,175.87
2023-01-09T16:36:05.268Z,172.83
2023-01-09T16:38:34.429Z,190.60
2023-01-09T16:41:22.720Z,174.87
2023-01-09T16:43:51.697Z,164.67
2023-01-09T16:46:20.989Z,170.77
2023-01-09T16:48:49.060Z,171.47
2023-01-09T16:51:18.465Z,186.20
2023-01-09T16:53:47.745Z,187.73
2023-01-09T16:56:19.833Z,188.37
2023-01-09T16:58:47.531Z,189.63
2023-01-09T17:01:15.802Z,167.73
2023-01-09T17:03:44.483Z,180.07
2023-01-09T17:06:16.841Z,180.57
2023-01-09T17:08:45.167Z,172.83
2023-01-09T17:11:21.175Z,171.43
2023-01-09T17:13:49.126Z,174.23
2023-01-09T17:16:17.990Z,175.00
2023-01-09T17:18:45.658Z,176.77
2023-01-09T17:21:17.768Z,165.63
2023-01-09T17:23:46.062Z,156.27
2023-01-09T17:26:41.953Z,167.63
2023-01-09T17:29:09.599Z,151.77
2023-01-09T17:31:38.700Z,162.30
2023-01-09T17:34:06.555Z,171.83
2023-01-09T17:36:35.071Z,171.40
2023-01-09T17:39:03.053Z,172.53
2023-01-09T17:41:33.623Z,158.13
2023-01-09T17:44:01.394Z,166.67
2023-01-09T17:46:32.292Z,157.87
2023-01-09T17:49:00.296Z,163.53
2023-01-09T17:51:29.259Z,156.00
2023-01-09T17:53:57.105Z,156.57
2023-01-09T17:56:27.761Z,174.60
2023-01-09T17:58:57.168Z,153.40
2023-01-09T18:01:24.843Z,179.10
2023-01-09T18:03:52.492Z,178.73
2023-01-09T18:06:22.414Z,168.17
2023-01-09T18:08:50.247Z,170.30
2023-01-09T18:11:19.343Z,162.37
2023-01-09T18:13:48.002Z,153.57
2023-01-09T18:16:18.571Z,173.17
2023-01-09T18:18:47.190Z,160.77
2023-01-09T18:21:17.723Z,156.50
2023-01-09T18:23:45.438Z,167.37
2023-01-09T18:26:20.244Z,155.00
2023-01-09T18:28:49.435Z,158.40
2023-01-09T18:31:22.622Z,163.60
2023-01-09T18:33:52.626Z,159.97
2023-01-09T18:36:21.759Z,186.30
2023-01-09T18:38:53.482Z,170.83
2023-01-09T18:41:21.475Z,168.90
2023-01-09T18:43:50.126Z,159.80
2023-01-09T18:46:23.829Z,168.73
2023-01-09T18:48:53.469Z,168.50
2023-01-09T18:51:21.768Z,167.07
2023-01-09T18:53:50.098Z,171.57
2023-01-09T18:56:19.701Z,174.20
2023-01-09T18:58:47.521Z,164.90
2023-01-09T19:01:15.973Z,169.37
2023-01-09T19:03:46.132Z,171.83
2023-01-09T19:06:13.877Z,159.83
2023-01-09T19:08:41.667Z,175.23
2023-01-09T19:11:09.615Z,177.70
2023-01-09T19:13:38.690Z,172.93
2023-01-09T19:16:08.762Z,165.77
2023-01-09T19:18:39.733Z,174.77
2023-01-09T19:21:13.654Z,171.50
2023-01-09T19:23:42.584Z,178.20
2023-01-09T19:26:16.783Z,171.07
2023-01-09T19:28:46.626Z,161.90
2023-01-09T19:31:14.519Z,169.87
2023-01-09T19:33:42.277Z,165.20
2023-01-09T19:36:10.261Z,184.97
2023-01-09T19:38:39.422Z,161.83
2023-01-09T19:41:09.433Z,151.77
2023-01-09T19:43:38.880Z,173.30
2023-01-09T19:46:09.256Z,162.83
2023-01-09T19:48:37.078Z,164.77
2023-01-09T19:51:07.236Z,165.87
2023-01-09T19:53:35.487Z,163.40
2023-01-09T19:56:13.197Z,150.67
2023-01-09T19:58:41.381Z,171.97
2023-01-09T20:01:10.836Z,166.63
2023-01-09T20:03:40.306Z,151.37
2023-01-09T20:06:13.864Z,163.23
2023-01-09T20:08:41.594Z,164.37
2023-01-09T20:11:10.720Z,154.70
2023-01-09T20:13:38.623Z,173.10
2023-01-09T20:16:07.551Z,165.33
2023-01-09T20:18:36.214Z,161.13
2023-01-09T20:21:04.018Z,166.50
2023-01-09T20:23:33.273Z,155.00
2023-01-09T20:26:02.163Z,157.33
2023-01-09T20:28:31.201Z,162.47
2023-01-09T20:30:59.000Z,165.57
2023-01-09T20:33:26.725Z,162.43
2023-01-09T20:35:54.335Z,164.83
2023-01-09T20:38:24.013Z,154.53
2023-01-09T20:40:55.755Z,161.70
2023-01-09T20:43:24.646Z,167.63
2023-01-09T20:45:53.681Z,173.60
2023-01-09T20:48:21.364Z,160.13
2023-01-09T20:50:49.052Z,168.87
2023-01-09T20:53:16.769Z,168.93
2023-01-09T20:55:44.385Z,170.57
2023-01-09T20:58:12.066Z,157.70
2023-01-09T21:00:39.724Z,171.10
2023-01-09T21:03:08.723Z,168.53
2023-01-09T21:05:41.032Z,163.33
2023-01-09T21:08:09.025Z,171.33
2023-01-09T21:10:36.669Z,183.13
2023-01-09T21:13:04.302Z,168.73
2023-01-09T21:15:31.944Z,183.33
2023-01-09T21:17:59.686Z,182.37
2023-01-09T21:20:28.739Z,175.17
2023-01-09T21:22:56.415Z,189.47
2023-01-09T21:25:24.166Z,171.57
2023-01-09T21:27:51.885Z,178.20
2023-01-09T21:30:19.603Z,164.50
2023-01-09T21:32:47.259Z,167.50
2023-01-09T21:35:15.790Z,164.03
2023-01-09T21:37:45.097Z,168.70
2023-01-09T21:40:16.019Z,162.33
2023-01-09T21:43:01.370Z,176.07
2023-01-09T21:45:46.873Z,170.07
2023-01-09T21:48:14.632Z,149.00
2023-01-09T21:50:42.445Z,161.93
2023-01-09T21:53:11.403Z,162.43
2023-01-09T21:55:39.109Z,157.50
2023-01-09T21:58:07.015Z,155.07
2023-01-09T22:00:34.717Z,152.00
2023-01-09T22:03:02.429Z,167.40
2023-01-09T22:05:30.155Z,170.63
2023-01-09T22:07:57.783Z,166.97
2023-01-09T22:10:26.983Z,162.00
2023-01-09T22:13:12.102Z,162.00
2023-01-09T22:15:41.210Z,176.60
2023-01-09T22:18:08.885Z,163.37
2023-01-09T22:20:37.201Z,175.57
2023-01-09T22:23:08.510Z,162.87
2023-01-09T22:25:41.880Z,167.17
2023-01-09T22:28:10.959Z,170.80
2023-01-09T22:30:40.695Z,167.70
2023-01-09T22:33:10.722Z,167.77
2023-01-09T22:35:38.779Z,174.47
2023-01-09T22:38:06.445Z,159.83
2023-01-09T22:40:34.144Z,166.30
2023-01-09T22:43:03.163Z,183.30
2023-01-09T22:45:30.914Z,182.63
2023-01-09T22:47:58.826Z,168.73
2023-01-09T22:50:26.694Z,185.07
2023-01-09T22:52:54.927Z,172.60
2023-01-09T22:55:22.569Z,174.37
2023-01-09T22:57:50.225Z,164.93
2023-01-09T23:00:19.881Z,177.60
2023-01-09T23:02:48.456Z,178.33
2023-01-09T23:05:16.264Z,180.00
2023-01-09T23:07:43.923Z,172.53
2023-01-09T23:10:12.170Z,176.57
2023-01-09T23:12:39.828Z,168.77
2023-01-09T23:15:09.940Z,165.70
2023-01-09T23:17:38.967Z,169.37
2023-01-09T23:20:07.343Z,169.30
2023-01-09T23:22:34.975Z,169.53
2023-01-09T23:25:02.606Z,161.73
2023-01-09T23:27:30.357Z,173.27
2023-01-09T23:29:57.968Z,178.20
2023-01-09T23:32:25.634Z,171.90
2023-01-09T23:34:55.372Z,185.37
2023-01-09T23:37:23.060Z,174.67
2023-01-09T23:39:50.898Z,164.20
2023-01-09T23:42:36.232Z,182.03
2023-01-09T23:45:04.155Z,156.00
2023-01-09T23:47:31.822Z,181.57
2023-01-09T23:50:00.877Z,162.93
2023-01-09T23:52:28.482Z,170.70
2023-01-09T23:54:56.644Z,167.83
2023-01-09T23:57:25.068Z,174.73
2023-01-09T23:59:52.686Z,159.33
